sensor_id;sensor_type;location;lat;lon;timestamp;P1;durP1;ratioP1;P2;durP2;ratioP2
56830;SDS011;42713;42.676;23.352;2022-09-20T00:00:03;2.08;;;1.10;;
56830;SDS011;42713;42.676;23.352;2022-09-20T00:02:29;2.55;;;1.00;;
56830;SDS011;42713;42.676;23.352;2022-09-20T00:04:55;2.85;;;1.27;;
56830;SDS011;42713;42.676;23.352;2022-09-20T00:07:20;3.08;;;1.17;;
56830;SDS011;42713;42.676;23.352;2022-09-20T00:09:46;1.77;;;1.02;;
56830;SDS011;42713;42.676;23.352;2022-09-20T00:12:11;3.67;;;1.40;;
56830;SDS011;42713;42.676;23.352;2022-09-20T00:14:38;3.25;;;1.35;;
56830;SDS011;42713;42.676;23.352;2022-09-20T00:17:03;2.30;;;1.20;;
56830;SDS011;42713;42.676;23.352;2022-09-20T00:19:29;2.83;;;1.20;;
56830;SDS011;42713;42.676;23.352;2022-09-20T00:21:54;2.97;;;1.30;;
56830;SDS011;42713;42.676;23.352;2022-09-20T00:24:20;3.55;;;1.50;;
56830;SDS011;42713;42.676;23.352;2022-09-20T00:26:45;3.03;;;1.20;;
56830;SDS011;42713;42.676;23.352;2022-09-20T00:29:11;2.90;;;1.30;;
56830;SDS011;42713;42.676;23.352;2022-09-20T00:31:37;2.63;;;1.20;;
56830;SDS011;42713;42.676;23.352;2022-09-20T00:34:04;2.85;;;1.30;;
56830;SDS011;42713;42.676;23.352;2022-09-20T00:36:48;3.08;;;1.30;;
56830;SDS011;42713;42.676;23.352;2022-09-20T00:39:14;2.95;;;1.25;;
56830;SDS011;42713;42.676;23.352;2022-09-20T00:41:40;3.20;;;1.20;;
56830;SDS011;42713;42.676;23.352;2022-09-20T00:50:01;2.15;;;1.13;;
56830;SDS011;42713;42.676;23.352;2022-09-20T00:52:31;3.20;;;1.15;;
56830;SDS011;42713;42.676;23.352;2022-09-20T00:54:59;2.53;;;0.93;;
56830;SDS011;42713;42.676;23.352;2022-09-20T00:57:27;1.90;;;1.10;;
56830;SDS011;42713;42.676;23.352;2022-09-20T00:59:59;2.58;;;1.20;;
56830;SDS011;42713;42.676;23.352;2022-09-20T01:02:29;3.00;;;1.15;;
56830;SDS011;42713;42.676;23.352;2022-09-20T01:04:57;2.47;;;1.05;;
56830;SDS011;42713;42.676;23.352;2022-09-20T01:07:23;2.72;;;1.08;;
56830;SDS011;42713;42.676;23.352;2022-09-20T01:09:50;3.00;;;1.20;;
56830;SDS011;42713;42.676;23.352;2022-09-20T01:12:19;2.35;;;1.13;;
56830;SDS011;42713;42.676;23.352;2022-09-20T01:14:47;2.20;;;1.10;;
56830;SDS011;42713;42.676;23.352;2022-09-20T01:17:15;1.85;;;1.10;;
56830;SDS011;42713;42.676;23.352;2022-09-20T01:26:22;3.58;;;1.45;;
56830;SDS011;42713;42.676;23.352;2022-09-20T01:28:30;3.97;;;1.30;;
56830;SDS011;42713;42.676;23.352;2022-09-20T01:33:59;2.80;;;1.20;;
56830;SDS011;42713;42.676;23.352;2022-09-20T01:42:24;2.33;;;1.08;;
56830;SDS011;42713;42.676;23.352;2022-09-20T01:45:04;2.25;;;1.20;;
56830;SDS011;42713;42.676;23.352;2022-09-20T01:50:27;2.65;;;1.20;;
56830;SDS011;42713;42.676;23.352;2022-09-20T01:55:59;2.78;;;1.30;;
56830;SDS011;42713;42.676;23.352;2022-09-20T02:08:04;2.63;;;1.25;;
56830;SDS011;42713;42.676;23.352;2022-09-20T02:24:28;3.55;;;1.58;;
56830;SDS011;42713;42.676;23.352;2022-09-20T02:29:32;3.38;;;1.55;;
56830;SDS011;42713;42.676;23.352;2022-09-20T02:32:11;3.30;;;1.60;;
56830;SDS011;42713;42.676;23.352;2022-09-20T02:42:48;4.07;;;1.58;;
56830;SDS011;42713;42.676;23.352;2022-09-20T02:45:38;3.58;;;1.50;;
56830;SDS011;42713;42.676;23.352;2022-09-20T02:48:07;3.33;;;1.50;;
56830;SDS011;42713;42.676;23.352;2022-09-20T03:01:21;4.72;;;1.75;;
56830;SDS011;42713;42.676;23.352;2022-09-20T03:06:32;3.60;;;1.73;;
56830;SDS011;42713;42.676;23.352;2022-09-20T03:09:17;3.72;;;1.80;;
56830;SDS011;42713;42.676;23.352;2022-09-20T03:19:37;4.78;;;1.90;;
56830;SDS011;42713;42.676;23.352;2022-09-20T03:30:26;4.18;;;1.90;;
56830;SDS011;42713;42.676;23.352;2022-09-20T03:34:19;3.95;;;1.80;;
56830;SDS011;42713;42.676;23.352;2022-09-20T03:47:45;3.67;;;1.70;;
56830;SDS011;42713;42.676;23.352;2022-09-20T03:55:48;4.10;;;1.83;;
56830;SDS011;42713;42.676;23.352;2022-09-20T04:02:05;3.90;;;1.58;;
56830;SDS011;42713;42.676;23.352;2022-09-20T04:04:39;4.70;;;1.70;;
56830;SDS011;42713;42.676;23.352;2022-09-20T04:07:13;4.15;;;1.75;;
56830;SDS011;42713;42.676;23.352;2022-09-20T04:23:01;3.90;;;1.55;;
56830;SDS011;42713;42.676;23.352;2022-09-20T04:25:40;4.57;;;1.77;;
56830;SDS011;42713;42.676;23.352;2022-09-20T04:28:11;5.45;;;1.75;;
56830;SDS011;42713;42.676;23.352;2022-09-20T04:30:43;3.30;;;1.50;;
56830;SDS011;42713;42.676;23.352;2022-09-20T04:35:46;3.80;;;1.60;;
56830;SDS011;42713;42.676;23.352;2022-09-20T04:38:32;8.82;;;2.20;;
56830;SDS011;42713;42.676;23.352;2022-09-20T04:49:59;5.80;;;2.00;;
56830;SDS011;42713;42.676;23.352;2022-09-20T05:12:40;3.83;;;1.60;;
56830;SDS011;42713;42.676;23.352;2022-09-20T05:29:13;5.80;;;1.92;;
56830;SDS011;42713;42.676;23.352;2022-09-20T05:35:03;3.97;;;1.80;;
56830;SDS011;42713;42.676;23.352;2022-09-20T05:37:40;4.13;;;1.63;;
56830;SDS011;42713;42.676;23.352;2022-09-20T05:45:45;3.95;;;1.60;;
56830;SDS011;42713;42.676;23.352;2022-09-20T05:48:22;3.35;;;1.50;;
56830;SDS011;42713;42.676;23.352;2022-09-20T05:51:04;5.80;;;2.03;;
56830;SDS011;42713;42.676;23.352;2022-09-20T06:10:56;3.42;;;1.67;;
56830;SDS011;42713;42.676;23.352;2022-09-20T06:16:48;4.25;;;1.65;;
56830;SDS011;42713;42.676;23.352;2022-09-20T06:19:38;4.32;;;1.65;;
56830;SDS011;42713;42.676;23.352;2022-09-20T06:22:11;3.50;;;1.42;;
56830;SDS011;42713;42.676;23.352;2022-09-20T06:24:46;3.92;;;1.63;;
56830;SDS011;42713;42.676;23.352;2022-09-20T06:27:34;4.32;;;1.50;;
56830;SDS011;42713;42.676;23.352;2022-09-20T06:30:16;6.47;;;1.60;;
56830;SDS011;42713;42.676;23.352;2022-09-20T06:35:23;3.08;;;1.30;;
56830;SDS011;42713;42.676;23.352;2022-09-20T06:38:05;3.63;;;1.50;;
56830;SDS011;42713;42.676;23.352;2022-09-20T06:40:51;4.60;;;1.50;;
56830;SDS011;42713;42.676;23.352;2022-09-20T06:43:35;4.60;;;1.30;;
56830;SDS011;42713;42.676;23.352;2022-09-20T06:46:04;3.00;;;1.25;;
56830;SDS011;42713;42.676;23.352;2022-09-20T06:48:30;4.10;;;1.40;;
56830;SDS011;42713;42.676;23.352;2022-09-20T06:50:56;4.32;;;1.30;;
56830;SDS011;42713;42.676;23.352;2022-09-20T06:53:29;3.15;;;1.40;;
56830;SDS011;42713;42.676;23.352;2022-09-20T06:55:56;6.03;;;1.38;;
56830;SDS011;42713;42.676;23.352;2022-09-20T06:58:23;3.17;;;1.20;;
56830;SDS011;42713;42.676;23.352;2022-09-20T07:00:49;2.72;;;1.23;;
56830;SDS011;42713;42.676;23.352;2022-09-20T07:03:14;3.75;;;1.20;;
56830;SDS011;42713;42.676;23.352;2022-09-20T07:05:40;4.68;;;1.25;;
56830;SDS011;42713;42.676;23.352;2022-09-20T07:08:05;6.93;;;1.30;;
56830;SDS011;42713;42.676;23.352;2022-09-20T07:10:31;4.13;;;1.40;;
56830;SDS011;42713;42.676;23.352;2022-09-20T07:12:58;2.67;;;1.10;;
56830;SDS011;42713;42.676;23.352;2022-09-20T07:15:25;3.58;;;1.50;;
56830;SDS011;42713;42.676;23.352;2022-09-20T07:17:52;3.55;;;1.42;;
56830;SDS011;42713;42.676;23.352;2022-09-20T07:20:18;5.82;;;1.65;;
56830;SDS011;42713;42.676;23.352;2022-09-20T07:22:45;4.57;;;1.55;;
56830;SDS011;42713;42.676;23.352;2022-09-20T07:25:10;3.75;;;1.35;;
56830;SDS011;42713;42.676;23.352;2022-09-20T07:27:36;3.30;;;1.30;;
56830;SDS011;42713;42.676;23.352;2022-09-20T07:30:01;3.08;;;1.38;;
56830;SDS011;42713;42.676;23.352;2022-09-20T07:32:28;3.45;;;1.17;;
56830;SDS011;42713;42.676;23.352;2022-09-20T07:34:54;4.55;;;1.23;;
56830;SDS011;42713;42.676;23.352;2022-09-20T07:37:19;2.78;;;1.10;;
56830;SDS011;42713;42.676;23.352;2022-09-20T07:39:45;2.75;;;1.20;;
56830;SDS011;42713;42.676;23.352;2022-09-20T07:42:11;3.28;;;1.50;;
56830;SDS011;42713;42.676;23.352;2022-09-20T07:44:37;3.58;;;1.13;;
56830;SDS011;42713;42.676;23.352;2022-09-20T07:47:05;3.30;;;1.10;;
56830;SDS011;42713;42.676;23.352;2022-09-20T07:49:30;2.63;;;1.23;;
56830;SDS011;42713;42.676;23.352;2022-09-20T07:51:56;2.38;;;1.17;;
56830;SDS011;42713;42.676;23.352;2022-09-20T07:54:22;2.92;;;1.17;;
56830;SDS011;42713;42.676;23.352;2022-09-20T07:56:48;5.43;;;1.70;;
56830;SDS011;42713;42.676;23.352;2022-09-20T07:59:14;5.85;;;1.50;;
56830;SDS011;42713;42.676;23.352;2022-09-20T08:01:40;4.47;;;1.55;;
56830;SDS011;42713;42.676;23.352;2022-09-20T08:04:07;4.72;;;1.60;;
56830;SDS011;42713;42.676;23.352;2022-09-20T08:06:40;2.78;;;1.23;;
56830;SDS011;42713;42.676;23.352;2022-09-20T08:09:07;3.17;;;1.35;;
56830;SDS011;42713;42.676;23.352;2022-09-20T08:11:34;3.22;;;1.15;;
56830;SDS011;42713;42.676;23.352;2022-09-20T08:14:00;3.47;;;1.30;;
56830;SDS011;42713;42.676;23.352;2022-09-20T08:16:27;3.00;;;1.10;;
56830;SDS011;42713;42.676;23.352;2022-09-20T08:18:58;4.05;;;1.45;;
56830;SDS011;42713;42.676;23.352;2022-09-20T08:21:26;3.05;;;1.20;;
56830;SDS011;42713;42.676;23.352;2022-09-20T08:23:55;3.28;;;1.08;;
56830;SDS011;42713;42.676;23.352;2022-09-20T08:26:22;2.03;;;1.00;;
56830;SDS011;42713;42.676;23.352;2022-09-20T08:28:52;2.55;;;1.10;;
56830;SDS011;42713;42.676;23.352;2022-09-20T08:31:20;4.97;;;1.10;;
56830;SDS011;42713;42.676;23.352;2022-09-20T08:33:48;2.25;;;0.93;;
56830;SDS011;42713;42.676;23.352;2022-09-20T08:36:15;2.10;;;1.05;;
56830;SDS011;42713;42.676;23.352;2022-09-20T08:38:46;1.90;;;0.80;;
56830;SDS011;42713;42.676;23.352;2022-09-20T08:41:26;3.70;;;0.73;;
56830;SDS011;42713;42.676;23.352;2022-09-20T08:44:03;1.25;;;0.80;;
56830;SDS011;42713;42.676;23.352;2022-09-20T08:46:38;3.72;;;0.73;;
56830;SDS011;42713;42.676;23.352;2022-09-20T08:49:06;2.67;;;0.70;;
56830;SDS011;42713;42.676;23.352;2022-09-20T08:51:39;1.38;;;0.80;;
56830;SDS011;42713;42.676;23.352;2022-09-20T08:54:06;1.90;;;0.80;;
56830;SDS011;42713;42.676;23.352;2022-09-20T08:56:38;0.80;;;0.70;;
56830;SDS011;42713;42.676;23.352;2022-09-20T08:59:04;1.70;;;0.82;;
56830;SDS011;42713;42.676;23.352;2022-09-20T09:01:33;3.10;;;0.80;;
56830;SDS011;42713;42.676;23.352;2022-09-20T09:04:21;2.17;;;0.70;;
56830;SDS011;42713;42.676;23.352;2022-09-20T09:06:48;1.92;;;0.73;;
56830;SDS011;42713;42.676;23.352;2022-09-20T09:11:47;0.85;;;0.60;;
56830;SDS011;42713;42.676;23.352;2022-09-20T09:14:33;3.47;;;1.08;;
56830;SDS011;42713;42.676;23.352;2022-09-20T09:17:20;2.65;;;0.60;;
56830;SDS011;42713;42.676;23.352;2022-09-20T09:30:44;2.00;;;0.93;;
56830;SDS011;42713;42.676;23.352;2022-09-20T09:38:29;3.00;;;0.90;;
56830;SDS011;42713;42.676;23.352;2022-09-20T09:41:09;2.42;;;1.00;;
56830;SDS011;42713;42.676;23.352;2022-09-20T09:46:24;3.40;;;1.10;;
56830;SDS011;42713;42.676;23.352;2022-09-20T09:51:32;2.17;;;0.80;;
56830;SDS011;42713;42.676;23.352;2022-09-20T09:53:58;5.47;;;0.98;;
56830;SDS011;42713;42.676;23.352;2022-09-20T10:01:57;2.90;;;0.82;;
56830;SDS011;42713;42.676;23.352;2022-09-20T10:04:40;0.73;;;0.65;;
56830;SDS011;42713;42.676;23.352;2022-09-20T10:07:22;2.42;;;0.90;;
56830;SDS011;42713;42.676;23.352;2022-09-20T10:21:36;0.88;;;0.65;;
56830;SDS011;42713;42.676;23.352;2022-09-20T10:27:06;3.22;;;0.80;;
56830;SDS011;42713;42.676;23.352;2022-09-20T10:29:57;1.35;;;0.70;;
56830;SDS011;42713;42.676;23.352;2022-09-20T10:40:24;1.10;;;0.70;;
56830;SDS011;42713;42.676;23.352;2022-09-20T10:43:12;1.27;;;0.80;;
56830;SDS011;42713;42.676;23.352;2022-09-20T10:45:57;1.33;;;0.60;;
56830;SDS011;42713;42.676;23.352;2022-09-20T10:48:31;1.13;;;0.70;;
56830;SDS011;42713;42.676;23.352;2022-09-20T10:51:23;1.00;;;0.77;;
56830;SDS011;42713;42.676;23.352;2022-09-20T10:54:19;1.35;;;0.70;;
56830;SDS011;42713;42.676;23.352;2022-09-20T10:56:48;0.65;;;0.63;;
56830;SDS011;42713;42.676;23.352;2022-09-20T11:02:20;1.10;;;0.80;;
56830;SDS011;42713;42.676;23.352;2022-09-20T11:05:17;1.58;;;0.85;;
56830;SDS011;42713;42.676;23.352;2022-09-20T11:10:14;2.53;;;0.90;;
56830;SDS011;42713;42.676;23.352;2022-09-20T11:13:02;0.93;;;0.63;;
56830;SDS011;42713;42.676;23.352;2022-09-20T11:18:32;1.40;;;1.00;;
56830;SDS011;42713;42.676;23.352;2022-09-20T11:21:09;1.83;;;1.05;;
56830;SDS011;42713;42.676;23.352;2022-09-20T11:23:58;2.10;;;0.90;;
56830;SDS011;42713;42.676;23.352;2022-09-20T11:29:52;1.95;;;0.90;;
56830;SDS011;42713;42.676;23.352;2022-09-20T11:34:52;1.90;;;1.00;;
56830;SDS011;42713;42.676;23.352;2022-09-20T11:37:21;2.17;;;0.88;;
56830;SDS011;42713;42.676;23.352;2022-09-20T11:39:52;2.80;;;0.90;;
56830;SDS011;42713;42.676;23.352;2022-09-20T11:42:37;1.30;;;0.80;;
56830;SDS011;42713;42.676;23.352;2022-09-20T11:45:05;2.53;;;0.90;;
56830;SDS011;42713;42.676;23.352;2022-09-20T11:47:37;2.05;;;1.00;;
56830;SDS011;42713;42.676;23.352;2022-09-20T11:58:15;1.15;;;0.70;;
56830;SDS011;42713;42.676;23.352;2022-09-20T12:00:46;1.08;;;0.70;;
56830;SDS011;42713;42.676;23.352;2022-09-20T12:03:24;3.10;;;0.80;;
56830;SDS011;42713;42.676;23.352;2022-09-20T12:06:03;1.15;;;0.60;;
56830;SDS011;42713;42.676;23.352;2022-09-20T12:08:35;1.73;;;0.73;;
56830;SDS011;42713;42.676;23.352;2022-09-20T12:11:05;1.30;;;0.70;;
56830;SDS011;42713;42.676;23.352;2022-09-20T12:13:35;0.70;;;0.60;;
56830;SDS011;42713;42.676;23.352;2022-09-20T12:16:07;1.73;;;0.80;;
56830;SDS011;42713;42.676;23.352;2022-09-20T12:18:46;3.17;;;0.85;;
56830;SDS011;42713;42.676;23.352;2022-09-20T12:21:25;3.30;;;0.77;;
56830;SDS011;42713;42.676;23.352;2022-09-20T12:39:16;1.83;;;0.70;;
56830;SDS011;42713;42.676;23.352;2022-09-20T12:41:56;2.00;;;0.80;;
56830;SDS011;42713;42.676;23.352;2022-09-20T12:47:14;2.63;;;0.82;;
56830;SDS011;42713;42.676;23.352;2022-09-20T13:05:39;3.67;;;0.93;;
56830;SDS011;42713;42.676;23.352;2022-09-20T13:08:29;1.70;;;0.60;;
56830;SDS011;42713;42.676;23.352;2022-09-20T13:13:30;0.80;;;0.52;;
56830;SDS011;42713;42.676;23.352;2022-09-20T13:16:03;3.40;;;0.77;;
56830;SDS011;42713;42.676;23.352;2022-09-20T13:18:33;1.27;;;0.60;;
56830;SDS011;42713;42.676;23.352;2022-09-20T13:21:00;2.45;;;0.77;;
56830;SDS011;42713;42.676;23.352;2022-09-20T13:23:33;1.20;;;0.68;;
56830;SDS011;42713;42.676;23.352;2022-09-20T13:26:10;0.60;;;0.60;;
56830;SDS011;42713;42.676;23.352;2022-09-20T13:28:39;2.72;;;0.63;;
56830;SDS011;42713;42.676;23.352;2022-09-20T13:33:47;0.55;;;0.45;;
56830;SDS011;42713;42.676;23.352;2022-09-20T13:36:13;0.60;;;0.60;;
56830;SDS011;42713;42.676;23.352;2022-09-20T13:38:38;1.75;;;0.50;;
56830;SDS011;42713;42.676;23.352;2022-09-20T13:41:08;1.33;;;0.77;;
56830;SDS011;42713;42.676;23.352;2022-09-20T13:43:35;0.90;;;0.52;;
56830;SDS011;42713;42.676;23.352;2022-09-20T13:48:32;1.05;;;0.50;;
56830;SDS011;42713;42.676;23.352;2022-09-20T13:50:57;0.82;;;0.55;;
56830;SDS011;42713;42.676;23.352;2022-09-20T13:53:24;0.75;;;0.50;;
56830;SDS011;42713;42.676;23.352;2022-09-20T13:55:51;1.30;;;0.60;;
56830;SDS011;42713;42.676;23.352;2022-09-20T14:00:56;0.75;;;0.43;;
56830;SDS011;42713;42.676;23.352;2022-09-20T14:03:24;1.55;;;0.50;;
56830;SDS011;42713;42.676;23.352;2022-09-20T14:06:01;1.25;;;0.52;;
56830;SDS011;42713;42.676;23.352;2022-09-20T14:08:34;1.08;;;0.40;;
56830;SDS011;42713;42.676;23.352;2022-09-20T14:11:05;0.43;;;0.43;;
56830;SDS011;42713;42.676;23.352;2022-09-20T14:13:34;0.95;;;0.55;;
56830;SDS011;42713;42.676;23.352;2022-09-20T14:16:03;1.52;;;0.70;;
56830;SDS011;42713;42.676;23.352;2022-09-20T14:18:29;1.40;;;0.65;;
56830;SDS011;42713;42.676;23.352;2022-09-20T14:20:55;2.95;;;0.80;;
56830;SDS011;42713;42.676;23.352;2022-09-20T14:23:26;2.88;;;0.88;;
56830;SDS011;42713;42.676;23.352;2022-09-20T14:28:40;1.83;;;0.80;;
56830;SDS011;42713;42.676;23.352;2022-09-20T14:31:16;1.23;;;0.60;;
56830;SDS011;42713;42.676;23.352;2022-09-20T14:33:47;1.42;;;0.60;;
56830;SDS011;42713;42.676;23.352;2022-09-20T14:36:18;1.10;;;0.50;;
56830;SDS011;42713;42.676;23.352;2022-09-20T14:38:49;2.22;;;0.70;;
56830;SDS011;42713;42.676;23.352;2022-09-20T14:41:32;1.60;;;0.70;;
56830;SDS011;42713;42.676;23.352;2022-09-20T14:44:00;1.95;;;0.70;;
56830;SDS011;42713;42.676;23.352;2022-09-20T14:46:31;2.47;;;0.60;;
56830;SDS011;42713;42.676;23.352;2022-09-20T14:51:50;1.07;;;0.63;;
56830;SDS011;42713;42.676;23.352;2022-09-20T14:54:26;1.13;;;0.60;;
56830;SDS011;42713;42.676;23.352;2022-09-20T14:56:54;1.42;;;0.70;;
56830;SDS011;42713;42.676;23.352;2022-09-20T14:59:34;1.92;;;0.90;;
56830;SDS011;42713;42.676;23.352;2022-09-20T15:02:10;2.45;;;0.73;;
56830;SDS011;42713;42.676;23.352;2022-09-20T15:04:38;2.20;;;0.70;;
56830;SDS011;42713;42.676;23.352;2022-09-20T15:07:07;1.58;;;0.63;;
56830;SDS011;42713;42.676;23.352;2022-09-20T15:09:37;3.38;;;0.73;;
56830;SDS011;42713;42.676;23.352;2022-09-20T15:14:40;2.38;;;0.70;;
56830;SDS011;42713;42.676;23.352;2022-09-20T15:17:08;3.15;;;0.80;;
56830;SDS011;42713;42.676;23.352;2022-09-20T15:19:37;2.65;;;0.80;;
56830;SDS011;42713;42.676;23.352;2022-09-20T15:22:03;1.92;;;0.80;;
56830;SDS011;42713;42.676;23.352;2022-09-20T15:24:28;1.73;;;0.82;;
56830;SDS011;42713;42.676;23.352;2022-09-20T15:26:54;2.15;;;0.88;;
56830;SDS011;42713;42.676;23.352;2022-09-20T15:29:20;2.67;;;0.88;;
56830;SDS011;42713;42.676;23.352;2022-09-20T15:31:46;2.63;;;0.80;;
56830;SDS011;42713;42.676;23.352;2022-09-20T15:34:12;2.38;;;0.80;;
56830;SDS011;42713;42.676;23.352;2022-09-20T15:36:39;2.75;;;0.80;;
56830;SDS011;42713;42.676;23.352;2022-09-20T15:39:05;3.55;;;0.90;;
56830;SDS011;42713;42.676;23.352;2022-09-20T15:41:32;5.03;;;0.95;;
56830;SDS011;42713;42.676;23.352;2022-09-20T15:43:58;3.60;;;1.17;;
56830;SDS011;42713;42.676;23.352;2022-09-20T15:46:24;5.55;;;1.00;;
56830;SDS011;42713;42.676;23.352;2022-09-20T15:48:53;4.28;;;0.93;;
56830;SDS011;42713;42.676;23.352;2022-09-20T15:51:20;1.75;;;0.80;;
56830;SDS011;42713;42.676;23.352;2022-09-20T15:53:54;2.05;;;0.88;;
56830;SDS011;42713;42.676;23.352;2022-09-20T15:58:48;2.40;;;0.88;;
56830;SDS011;42713;42.676;23.352;2022-09-20T16:01:17;3.00;;;0.88;;
56830;SDS011;42713;42.676;23.352;2022-09-20T16:03:44;3.58;;;1.10;;
56830;SDS011;42713;42.676;23.352;2022-09-20T16:06:11;4.32;;;0.90;;
56830;SDS011;42713;42.676;23.352;2022-09-20T16:08:38;4.40;;;1.00;;
56830;SDS011;42713;42.676;23.352;2022-09-20T16:11:08;3.83;;;1.20;;
56830;SDS011;42713;42.676;23.352;2022-09-20T16:13:36;6.78;;;1.30;;
56830;SDS011;42713;42.676;23.352;2022-09-20T16:16:03;3.17;;;1.10;;
56830;SDS011;42713;42.676;23.352;2022-09-20T16:18:30;3.80;;;1.30;;
56830;SDS011;42713;42.676;23.352;2022-09-20T16:21:15;5.70;;;1.33;;
56830;SDS011;42713;42.676;23.352;2022-09-20T16:23:45;2.72;;;1.20;;
56830;SDS011;42713;42.676;23.352;2022-09-20T16:26:13;5.35;;;1.40;;
56830;SDS011;42713;42.676;23.352;2022-09-20T16:28:38;4.07;;;1.40;;
56830;SDS011;42713;42.676;23.352;2022-09-20T16:31:04;4.03;;;1.10;;
56830;SDS011;42713;42.676;23.352;2022-09-20T16:33:31;4.65;;;1.67;;
56830;SDS011;42713;42.676;23.352;2022-09-20T16:35:57;3.10;;;1.38;;
56830;SDS011;42713;42.676;23.352;2022-09-20T16:38:23;3.13;;;1.20;;
56830;SDS011;42713;42.676;23.352;2022-09-20T16:40:49;6.97;;;1.33;;
56830;SDS011;42713;42.676;23.352;2022-09-20T16:43:20;3.72;;;1.50;;
56830;SDS011;42713;42.676;23.352;2022-09-20T16:45:56;6.47;;;1.65;;
56830;SDS011;42713;42.676;23.352;2022-09-20T16:48:25;4.53;;;1.50;;
56830;SDS011;42713;42.676;23.352;2022-09-20T16:50:55;4.43;;;1.35;;
56830;SDS011;42713;42.676;23.352;2022-09-20T16:53:21;4.45;;;1.40;;
56830;SDS011;42713;42.676;23.352;2022-09-20T16:55:47;5.88;;;1.60;;
56830;SDS011;42713;42.676;23.352;2022-09-20T16:58:13;8.27;;;1.90;;
56830;SDS011;42713;42.676;23.352;2022-09-20T17:00:39;5.93;;;1.65;;
56830;SDS011;42713;42.676;23.352;2022-09-20T17:03:06;4.72;;;1.80;;
56830;SDS011;42713;42.676;23.352;2022-09-20T17:05:32;4.25;;;1.40;;
56830;SDS011;42713;42.676;23.352;2022-09-20T17:07:57;5.30;;;1.92;;
56830;SDS011;42713;42.676;23.352;2022-09-20T17:10:25;7.20;;;1.90;;
56830;SDS011;42713;42.676;23.352;2022-09-20T17:12:52;4.95;;;1.75;;
56830;SDS011;42713;42.676;23.352;2022-09-20T17:15:21;4.55;;;1.60;;
56830;SDS011;42713;42.676;23.352;2022-09-20T17:17:47;5.78;;;1.50;;
56830;SDS011;42713;42.676;23.352;2022-09-20T17:20:14;5.70;;;1.60;;
56830;SDS011;42713;42.676;23.352;2022-09-20T17:22:39;4.43;;;1.70;;
56830;SDS011;42713;42.676;23.352;2022-09-20T17:25:07;6.18;;;1.70;;
56830;SDS011;42713;42.676;23.352;2022-09-20T17:27:32;4.70;;;1.60;;
56830;SDS011;42713;42.676;23.352;2022-09-20T17:29:58;6.82;;;1.98;;
56830;SDS011;42713;42.676;23.352;2022-09-20T17:32:23;5.93;;;1.92;;
56830;SDS011;42713;42.676;23.352;2022-09-20T17:34:49;6.50;;;2.30;;
56830;SDS011;42713;42.676;23.352;2022-09-20T17:37:14;4.43;;;1.60;;
56830;SDS011;42713;42.676;23.352;2022-09-20T17:39:39;6.10;;;2.15;;
56830;SDS011;42713;42.676;23.352;2022-09-20T17:42:05;7.75;;;1.80;;
56830;SDS011;42713;42.676;23.352;2022-09-20T17:44:30;4.93;;;1.80;;
56830;SDS011;42713;42.676;23.352;2022-09-20T17:47:00;4.35;;;1.65;;
56830;SDS011;42713;42.676;23.352;2022-09-20T17:49:28;5.65;;;1.88;;
56830;SDS011;42713;42.676;23.352;2022-09-20T17:51:55;4.75;;;1.70;;
56830;SDS011;42713;42.676;23.352;2022-09-20T17:54:21;4.90;;;1.80;;
56830;SDS011;42713;42.676;23.352;2022-09-20T17:56:48;5.57;;;1.90;;
56830;SDS011;42713;42.676;23.352;2022-09-20T17:59:16;5.20;;;1.85;;
56830;SDS011;42713;42.676;23.352;2022-09-20T18:01:46;6.15;;;1.65;;
56830;SDS011;42713;42.676;23.352;2022-09-20T18:04:14;6.07;;;2.20;;
56830;SDS011;42713;42.676;23.352;2022-09-20T18:06:41;7.32;;;1.90;;
56830;SDS011;42713;42.676;23.352;2022-09-20T18:09:11;6.78;;;2.00;;
56830;SDS011;42713;42.676;23.352;2022-09-20T18:11:43;7.95;;;1.80;;
56830;SDS011;42713;42.676;23.352;2022-09-20T18:14:14;6.28;;;1.90;;
56830;SDS011;42713;42.676;23.352;2022-09-20T18:16:41;5.25;;;1.73;;
56830;SDS011;42713;42.676;23.352;2022-09-20T18:19:09;4.25;;;1.80;;
56830;SDS011;42713;42.676;23.352;2022-09-20T18:21:36;4.30;;;1.70;;
56830;SDS011;42713;42.676;23.352;2022-09-20T18:24:05;6.25;;;2.17;;
56830;SDS011;42713;42.676;23.352;2022-09-20T18:26:35;6.43;;;1.88;;
56830;SDS011;42713;42.676;23.352;2022-09-20T18:29:03;6.03;;;1.90;;
56830;SDS011;42713;42.676;23.352;2022-09-20T18:31:36;4.28;;;1.85;;
56830;SDS011;42713;42.676;23.352;2022-09-20T18:34:08;6.35;;;2.10;;
56830;SDS011;42713;42.676;23.352;2022-09-20T18:36:39;4.90;;;2.00;;
56830;SDS011;42713;42.676;23.352;2022-09-20T18:39:05;5.65;;;1.80;;
56830;SDS011;42713;42.676;23.352;2022-09-20T18:41:32;7.03;;;2.20;;
56830;SDS011;42713;42.676;23.352;2022-09-20T18:44:01;5.70;;;2.13;;
56830;SDS011;42713;42.676;23.352;2022-09-20T18:46:28;9.20;;;2.75;;
56830;SDS011;42713;42.676;23.352;2022-09-20T18:48:58;5.45;;;2.20;;
56830;SDS011;42713;42.676;23.352;2022-09-20T18:51:29;7.35;;;2.13;;
56830;SDS011;42713;42.676;23.352;2022-09-20T18:53:55;6.05;;;1.95;;
56830;SDS011;42713;42.676;23.352;2022-09-20T18:58:56;5.68;;;2.05;;
56830;SDS011;42713;42.676;23.352;2022-09-20T19:12:40;6.03;;;2.00;;
56830;SDS011;42713;42.676;23.352;2022-09-20T19:21:07;5.53;;;2.50;;
56830;SDS011;42713;42.676;23.352;2022-09-20T19:26:24;10.20;;;3.13;;
56830;SDS011;42713;42.676;23.352;2022-09-20T19:28:52;9.13;;;3.47;;
56830;SDS011;42713;42.676;23.352;2022-09-20T19:31:26;14.10;;;3.47;;
56830;SDS011;42713;42.676;23.352;2022-09-20T19:33:57;10.13;;;2.72;;
56830;SDS011;42713;42.676;23.352;2022-09-20T19:39:13;10.45;;;2.53;;
56830;SDS011;42713;42.676;23.352;2022-09-20T19:41:49;10.98;;;2.38;;
56830;SDS011;42713;42.676;23.352;2022-09-20T19:52:18;4.53;;;1.95;;
56830;SDS011;42713;42.676;23.352;2022-09-20T19:54:46;7.05;;;2.30;;
56830;SDS011;42713;42.676;23.352;2022-09-20T19:57:22;6.38;;;2.20;;
56830;SDS011;42713;42.676;23.352;2022-09-20T20:00:17;7.60;;;3.00;;
56830;SDS011;42713;42.676;23.352;2022-09-20T20:02:47;10.27;;;3.97;;
56830;SDS011;42713;42.676;23.352;2022-09-20T20:05:13;6.38;;;2.95;;
56830;SDS011;42713;42.676;23.352;2022-09-20T20:10:17;11.25;;;2.85;;
56830;SDS011;42713;42.676;23.352;2022-09-20T20:16:38;8.57;;;2.42;;
56830;SDS011;42713;42.676;23.352;2022-09-20T20:24:10;5.88;;;2.63;;
56830;SDS011;42713;42.676;23.352;2022-09-20T20:26:45;6.38;;;2.53;;
56830;SDS011;42713;42.676;23.352;2022-09-20T20:29:10;5.97;;;2.47;;
56830;SDS011;42713;42.676;23.352;2022-09-20T20:31:37;9.38;;;2.75;;
56830;SDS011;42713;42.676;23.352;2022-09-20T20:34:02;7.03;;;2.90;;
56830;SDS011;42713;42.676;23.352;2022-09-20T20:36:27;6.13;;;2.65;;
56830;SDS011;42713;42.676;23.352;2022-09-20T20:38:53;7.85;;;2.78;;
56830;SDS011;42713;42.676;23.352;2022-09-20T20:41:19;7.88;;;3.15;;
56830;SDS011;42713;42.676;23.352;2022-09-20T20:43:46;7.13;;;2.42;;
56830;SDS011;42713;42.676;23.352;2022-09-20T20:46:13;6.53;;;2.60;;
56830;SDS011;42713;42.676;23.352;2022-09-20T20:48:41;6.63;;;2.42;;
56830;SDS011;42713;42.676;23.352;2022-09-20T20:51:11;9.60;;;2.67;;
56830;SDS011;42713;42.676;23.352;2022-09-20T20:53:38;7.10;;;2.50;;
56830;SDS011;42713;42.676;23.352;2022-09-20T20:56:10;7.60;;;2.20;;
56830;SDS011;42713;42.676;23.352;2022-09-20T20:58:38;5.55;;;2.10;;
56830;SDS011;42713;42.676;23.352;2022-09-20T21:01:10;6.90;;;2.10;;
56830;SDS011;42713;42.676;23.352;2022-09-20T21:03:38;5.28;;;2.15;;
56830;SDS011;42713;42.676;23.352;2022-09-20T21:06:06;4.47;;;1.80;;
56830;SDS011;42713;42.676;23.352;2022-09-20T21:08:33;7.35;;;1.98;;